Time;durP1;ratioP1;P1;durP2;ratioP2;P2;SDS_P1;SDS_P2;PMS_P1;PMS_P2;Temp;Humidity;BMP_temperature;BMP_pressure;BME280_temperature;BME280_humidity;BME280_pressure;Samples;Min_cycle;Max_cycle;Signal;HPM_P1;HPM_P2
2021/07/12 00:01:28;;;;;;;;;6.67;5.00;;;;;18.82;65.58;100796.91;5053801;28;45718;-66
2021/07/12 00:03:53;;;;;;;;;5.00;4.00;;;;;18.77;65.77;100786.78;5053729;28;45557;-69
2021/07/12 00:06:18;;;;;;;;;3.00;3.00;;;;;18.74;65.82;100780.94;5052739;28;45453;-69
2021/07/12 00:08:44;;;;;;;;;4.67;4.00;;;;;18.71;66.16;100775.94;5049577;28;45257;-69
2021/07/12 00:11:09;;;;;;;;;5.67;5.00;;;;;18.66;66.38;100768.47;5031386;28;45925;-67
2021/07/12 00:13:35;;;;;;;;;5.00;5.00;;;;;18.61;66.60;100766.31;5037001;28;45296;-67
2021/07/12 00:16:01;;;;;;;;;5.00;4.00;;;;;18.56;66.44;100767.81;5053378;28;45468;-67
2021/07/12 00:18:26;;;;;;;;;5.67;4.00;;;;;18.51;66.80;100760.31;5055408;28;45456;-68
2021/07/12 00:20:51;;;;;;;;;4.00;4.00;;;;;18.48;66.60;100755.34;5053784;28;45490;-68
2021/07/12 00:23:17;;;;;;;;;7.00;6.00;;;;;18.45;66.85;100745.84;5054634;28;45538;-67
2021/07/12 00:25:43;;;;;;;;;4.33;4.33;;;;;18.43;66.96;100739.03;5055205;28;45432;-68
2021/07/12 00:28:08;;;;;;;;;3.00;2.67;;;;;18.38;67.19;100725.41;5056089;28;45419;-70
2021/07/12 00:30:33;;;;;;;;;5.33;5.00;;;;;18.35;66.78;100723.09;5044232;28;46018;-68
2021/07/12 00:32:59;;;;;;;;;5.00;4.00;;;;;18.33;67.50;100722.41;5050588;28;45645;-66
2021/07/12 00:35:26;;;;;;;;;5.67;4.67;;;;;18.30;67.62;100726.22;5054886;28;45482;-67
2021/07/12 00:37:53;;;;;;;;;4.33;4.00;;;;;18.26;67.52;100719.59;5055027;28;45639;-68
2021/07/12 00:40:21;;;;;;;;;3.67;3.67;;;;;18.24;67.81;100725.06;5055472;28;47005;-67
2021/07/12 00:42:48;;;;;;;;;3.67;3.67;;;;;18.22;67.80;100723.56;5055541;28;45474;-67
2021/07/12 00:45:25;;;;;;;;;4.00;4.00;;;;;18.19;67.92;100723.88;5049728;28;45589;-67
2021/07/12 00:47:53;;;;;;;;;7.33;4.00;;;;;18.19;67.81;100756.63;5046340;28;45292;-70
2021/07/12 00:50:20;;;;;;;;;3.50;3.50;;;;;18.22;67.77;100774.91;5045882;28;46340;-67
2021/07/12 00:52:47;;;;;;;;;4.00;4.00;;;;;18.24;67.68;100774.72;5055453;28;45494;-66
2021/07/12 00:55:13;;;;;;;;;6.00;6.00;;;;;18.25;67.68;100771.09;5058298;28;45486;-67
2021/07/12 00:57:39;;;;;;;;;4.00;3.67;;;;;18.27;67.56;100775.25;5056093;28;45494;-66
2021/07/12 01:00:06;;;;;;;;;10.33;8.00;;;;;18.29;67.62;100777.72;5055884;28;46256;-67
2021/07/12 01:02:31;;;;;;;;;4.00;4.00;;;;;18.31;67.60;100771.25;5056201;28;45498;-68
2021/07/12 01:04:56;;;;;;;;;4.67;3.67;;;;;18.34;67.53;100763.97;5055784;28;45998;-67
2021/07/12 01:07:22;;;;;;;;;4.00;4.00;;;;;18.36;67.46;100772.59;5038374;28;45547;-68
2021/07/12 01:09:47;;;;;;;;;3.00;3.00;;;;;18.36;67.40;100772.59;5055846;28;45712;-66
2021/07/12 01:12:19;;;;;;;;;4.33;4.33;;;;;18.36;67.40;100767.28;5053663;28;45591;-67
2021/07/12 01:14:53;;;;;;;;;3.67;3.67;;;;;18.38;67.54;100754.66;5048362;28;45405;-67
2021/07/12 01:17:43;;;;;;;;;2.67;2.67;;;;;18.40;67.67;100744.69;5054846;28;45546;-67
2021/07/12 01:20:36;;;;;;;;;3.67;3.67;;;;;18.37;67.56;100729.06;5055463;28;46093;-69
2021/07/12 01:23:10;;;;;;;;;2.67;2.67;;;;;18.35;67.86;100723.09;5051718;28;45702;-66
2021/07/12 01:25:57;;;;;;;;;2.00;2.00;;;;;18.33;67.75;100719.75;5054486;28;45438;-68
2021/07/12 01:28:50;;;;;;;;;4.00;4.00;;;;;18.30;67.89;100712.94;5052660;28;45514;-67
2021/07/12 01:31:53;;;;;;;;;2.67;2.33;;;;;18.26;68.03;100688.50;5051015;28;46103;-66
2021/07/12 01:34:54;;;;;;;;;5.67;4.00;;;;;18.22;68.27;100692.47;5054497;28;45432;-65
2021/07/12 01:37:39;;;;;;;;;5.00;4.00;;;;;18.18;68.36;100683.19;5047459;28;45492;-65
2021/07/12 01:40:11;;;;;;;;;3.67;3.67;;;;;18.15;68.27;100686.19;5039585;28;45293;-67
2021/07/12 01:43:12;;;;;;;;;5.33;5.33;;;;;18.14;69.00;100689.81;5054858;28;45516;-68
2021/07/12 01:45:55;;;;;;;;;4.67;4.67;;;;;18.10;68.88;100688.50;5049128;28;45412;-68
2021/07/12 01:48:39;;;;;;;;;4.00;4.00;;;;;18.08;68.84;100680.66;5055702;28;45632;-65
2021/07/12 01:51:09;;;;;;;;;3.00;3.00;;;;;18.06;68.80;100680.00;5057461;28;45607;-66
2021/07/12 01:53:57;;;;;;;;;6.00;4.00;;;;;18.04;69.09;100673.19;5056940;28;47138;-66
2021/07/12 01:56:49;;;;;;;;;5.33;5.33;;;;;18.02;69.40;100673.38;5053940;28;45304;-66
2021/07/12 01:59:23;;;;;;;;;4.00;4.00;;;;;17.98;69.51;100670.22;5054663;28;45402;-66
2021/07/12 02:01:49;;;;;;;;;6.00;6.00;;;;;18.00;69.60;100672.69;5038957;28;45325;-67
2021/07/12 02:04:16;;;;;;;;;4.33;4.33;;;;;17.98;69.54;100664.88;5054704;28;47248;-67
2021/07/12 02:06:43;;;;;;;;;6.33;4.00;;;;;17.98;69.37;100670.22;5054728;28;45626;-67
2021/07/12 02:09:11;;;;;;;;;2.67;2.67;;;;;18.01;69.39;100676.16;5053526;28;45257;-66
2021/07/12 02:11:44;;;;;;;;;4.67;4.67;;;;;18.03;69.19;100676.84;5050900;28;45270;-66
2021/07/12 02:14:11;;;;;;;;;6.67;4.00;;;;;18.04;69.12;100668.72;5041462;28;45421;-68
2021/07/12 02:16:38;;;;;;;;;4.00;4.00;;;;;18.08;69.08;100674.53;5053854;28;45347;-66
2021/07/12 02:19:06;;;;;;;;;6.67;5.33;;;;;18.10;68.96;100672.56;5055085;28;45488;-67
2021/07/12 02:21:33;;;;;;;;;8.33;4.67;;;;;18.11;68.97;100671.53;5053411;28;45540;-66
2021/07/12 02:24:04;;;;;;;;;5.67;5.67;;;;;18.14;68.88;100669.38;5052666;28;46146;-67
2021/07/12 02:26:31;;;;;;;;;7.33;6.00;;;;;18.18;68.87;100674.38;5053484;28;45531;-65
2021/07/12 02:29:01;;;;;;;;;9.00;7.00;;;;;18.18;68.42;100675.22;5054060;28;45525;-66
2021/07/12 02:31:28;;;;;;;;;6.00;6.00;;;;;18.24;68.69;100684.34;5036796;28;45385;-66
2021/07/12 02:33:54;;;;;;;;;5.67;5.67;;;;;18.27;68.34;100679.53;5055133;28;45387;-67
2021/07/12 02:36:20;;;;;;;;;1.67;1.33;;;;;18.31;68.25;100680.03;5045560;28;46499;-67
2021/07/12 02:38:47;;;;;;;;;5.67;5.67;;;;;18.34;68.13;100690.31;5050292;28;45280;-67
2021/07/12 02:41:14;;;;;;;;;6.00;6.00;;;;;18.37;68.20;100675.88;5048960;28;45306;-65
2021/07/12 02:43:40;;;;;;;;;6.33;5.00;;;;;18.40;68.14;100678.22;5052844;28;47136;-65
2021/07/12 02:46:07;;;;;;;;;7.00;5.00;;;;;18.41;67.82;100663.91;5050878;28;45517;-63
2021/07/12 02:48:33;;;;;;;;;5.00;3.67;;;;;18.42;67.75;100673.53;5041816;28;45432;-66
2021/07/12 02:51:03;;;;;;;;;4.33;4.00;;;;;18.42;68.03;100670.88;5041561;28;45557;-64
2021/07/12 02:53:32;;;;;;;;;5.67;5.67;;;;;18.43;67.67;100675.22;5034636;28;48391;-65
2021/07/12 02:55:58;;;;;;;;;5.67;5.00;;;;;18.41;67.64;100685.16;5039372;28;45423;-62
2021/07/12 02:58:24;;;;;;;;;5.00;3.33;;;;;18.41;67.58;100677.19;5037870;28;45429;-63
2021/07/12 03:00:49;;;;;;;;;5.00;4.00;;;;;18.42;67.63;100687.69;5039752;28;45390;-65
2021/07/12 03:03:15;;;;;;;;;4.00;4.00;;;;;18.45;67.44;100686.53;5055510;28;46203;-62
2021/07/12 03:05:40;;;;;;;;;5.00;5.00;;;;;18.47;67.21;100674.72;5039865;28;45537;-62
2021/07/12 03:08:22;;;;;;;;;6.67;4.33;;;;;18.51;67.33;100667.22;5039297;28;45458;-64
2021/07/12 03:10:54;;;;;;;;;6.00;4.00;;;;;18.53;67.43;100653.78;5018080;28;45557;-67
2021/07/12 03:13:33;;;;;;;;;3.67;3.67;;;;;18.49;67.25;100645.28;5054003;28;46404;-63
2021/07/12 03:15:59;;;;;;;;;5.67;3.67;;;;;18.46;67.73;100645.59;5053638;28;45371;-65
2021/07/12 03:18:31;;;;;;;;;6.00;5.33;;;;;18.43;67.71;100646.78;5052861;28;45426;-64
2021/07/12 03:21:02;;;;;;;;;3.67;3.00;;;;;18.39;67.98;100640.13;5051785;28;45422;-65
2021/07/12 03:23:30;;;;;;;;;5.33;5.33;;;;;18.35;67.97;100633.50;5050866;28;47460;-64
2021/07/12 03:25:59;;;;;;;;;5.00;5.00;;;;;18.33;67.91;100639.97;5033388;28;45422;-63
2021/07/12 03:28:25;;;;;;;;;6.00;4.33;;;;;18.31;68.21;100637.50;5053498;28;46392;-63
2021/07/12 03:30:51;;;;;;;;;1.67;1.00;;;;;18.29;68.11;100637.66;5052679;28;45343;-65
2021/07/12 03:33:20;;;;;;;;;6.00;4.67;;;;;18.29;67.93;100628.84;5051982;28;45505;-65
2021/07/12 03:35:48;;;;;;;;;4.00;4.00;;;;;18.24;68.02;100610.75;5051944;28;45280;-64
2021/07/12 03:38:17;;;;;;;;;3.00;3.00;;;;;18.21;67.93;100611.06;5052247;28;45521;-64
2021/07/12 03:40:44;;;;;;;;;4.33;4.33;;;;;18.16;68.21;100608.06;5035809;28;45458;-65
2021/07/12 03:43:10;;;;;;;;;8.33;4.33;;;;;18.16;68.23;100612.56;5051687;28;46281;-63
2021/07/12 03:45:40;;;;;;;;;3.33;3.00;;;;;18.15;68.20;100614.41;5056475;28;45340;-67
2021/07/12 03:48:07;;;;;;;;;5.33;4.00;;;;;18.18;67.82;100606.09;5054701;28;45546;-65
2021/07/12 03:50:32;;;;;;;;;3.00;3.00;;;;;18.19;67.82;100605.09;5056267;28;45385;-69
2021/07/12 03:53:01;;;;;;;;;4.00;3.00;;;;;18.22;68.16;100607.41;5057879;28;45549;-68
2021/07/12 03:55:27;;;;;;;;;3.00;3.00;;;;;18.29;67.81;100611.06;5057526;28;45463;-67
2021/07/12 03:57:53;;;;;;;;;4.00;3.00;;;;;18.37;67.96;100609.38;5058879;28;45393;-67
2021/07/12 04:00:21;;;;;;;;;3.00;3.00;;;;;18.44;67.51;100597.09;5058640;28;45978;-68
2021/07/12 04:02:47;;;;;;;;;5.00;4.00;;;;;18.51;67.43;100594.59;5058069;28;46385;-69
2021/07/12 04:05:13;;;;;;;;;3.00;3.00;;;;;18.54;66.85;100595.09;5038543;28;45542;-68
2021/07/12 04:07:40;;;;;;;;;2.00;2.00;;;;;18.55;66.99;100596.75;5056130;28;45491;-67
2021/07/12 04:10:09;;;;;;;;;5.67;2.00;;;;;18.53;66.73;100593.41;5057573;28;45479;-67
2021/07/12 04:12:35;;;;;;;;;2.00;2.00;;;;;18.50;66.75;100592.91;5055547;28;46655;-68
2021/07/12 04:15:01;;;;;;;;;2.00;2.00;;;;;18.48;66.92;100585.13;5053793;28;46021;-66
2021/07/12 04:17:26;;;;;;;;;3.00;3.00;;;;;18.50;66.89;100598.25;5060297;28;45479;-68
2021/07/12 04:19:52;;;;;;;;;3.67;3.67;;;;;18.52;67.00;100586.44;5063748;28;45925;-67
2021/07/12 04:22:17;;;;;;;;;4.00;3.00;;;;;18.55;66.89;100593.25;5038539;28;45784;-67
2021/07/12 04:24:43;;;;;;;;;5.00;4.00;;;;;18.55;66.84;100591.44;5055542;28;45470;-68
2021/07/12 04:27:08;;;;;;;;;3.00;3.00;;;;;18.59;66.78;100592.75;5056239;28;45616;-68
2021/07/12 04:29:33;;;;;;;;;7.33;4.67;;;;;18.61;66.63;100580.09;5055644;28;45423;-68
2021/07/12 04:32:00;;;;;;;;;2.00;2.00;;;;;18.61;66.66;100582.75;5053877;28;46613;-68
2021/07/12 04:34:27;;;;;;;;;3.00;3.00;;;;;18.66;66.50;100589.41;5055489;28;45526;-67
2021/07/12 04:36:53;;;;;;;;;3.33;3.33;;;;;18.71;66.52;100584.38;5055340;28;45284;-67
2021/07/12 04:39:18;;;;;;;;;3.00;3.00;;;;;18.75;66.64;100585.72;5055672;28;45351;-67
2021/07/12 04:41:44;;;;;;;;;3.00;3.00;;;;;18.76;66.33;100590.03;5054519;28;46323;-68
2021/07/12 04:44:09;;;;;;;;;5.67;4.00;;;;;18.78;66.28;100580.06;5056118;28;45448;-69
2021/07/12 04:46:36;;;;;;;;;5.67;3.67;;;;;18.83;66.29;100584.88;5055208;28;45761;-67
2021/07/12 04:49:01;;;;;;;;;4.33;4.00;;;;;18.85;66.60;100589.03;5055990;28;45407;-68
2021/07/12 04:51:27;;;;;;;;;3.00;3.00;;;;;18.90;66.66;100588.50;5054647;28;47037;-67
2021/07/12 04:53:52;;;;;;;;;6.00;4.00;;;;;18.93;66.24;100583.69;5055178;28;45478;-68
2021/07/12 04:56:17;;;;;;;;;5.33;5.33;;;;;18.98;65.78;100595.66;5055160;28;45527;-68
2021/07/12 04:58:45;;;;;;;;;8.33;7.00;;;;;19.00;66.09;100594.47;5055380;28;45495;-69
2021/07/12 05:01:11;;;;;;;;;4.00;4.00;;;;;19.02;66.12;100599.63;5056098;28;46444;-69
2021/07/12 05:03:37;;;;;;;;;3.00;3.00;;;;;19.04;65.85;100600.28;5054727;28;45666;-67
2021/07/12 05:06:03;;;;;;;;;3.33;3.00;;;;;19.06;65.66;100603.63;5054813;28;45448;-69
2021/07/12 05:08:28;;;;;;;;;5.00;4.00;;;;;19.06;65.41;100601.78;5057373;28;45460;-67
2021/07/12 05:10:54;;;;;;;;;3.00;3.00;;;;;19.05;65.55;100601.94;5058035;28;46161;-67
2021/07/12 05:13:20;;;;;;;;;3.00;2.00;;;;;19.03;65.39;100594.16;5056753;28;45537;-67
2021/07/12 05:15:45;;;;;;;;;3.00;3.00;;;;;19.03;65.98;100596.81;5056530;28;45518;-67
2021/07/12 05:18:11;;;;;;;;;3.33;3.33;;;;;19.04;65.89;100592.28;5055744;28;45422;-69
2021/07/12 05:20:36;;;;;;;;;3.00;3.00;;;;;19.05;66.02;100592.13;5054782;28;45462;-67
2021/07/12 05:23:02;;;;;;;;;4.00;3.00;;;;;19.08;66.33;100585.63;5053353;28;45376;-68
2021/07/12 05:25:27;;;;;;;;;3.00;3.00;;;;;19.07;66.33;100583.94;5055528;28;45377;-67
2021/07/12 05:27:53;;;;;;;;;3.00;3.00;;;;;19.07;66.27;100581.28;5054749;28;45330;-67
2021/07/12 05:30:19;;;;;;;;;6.00;4.33;;;;;19.06;66.09;100587.66;5055201;28;45475;-68
2021/07/12 05:32:44;;;;;;;;;3.33;3.33;;;;;19.08;66.09;100577.63;5052895;28;45582;-68
2021/07/12 05:35:10;;;;;;;;;3.00;3.00;;;;;19.09;65.89;100576.63;5054210;28;45321;-68
2021/07/12 05:37:37;;;;;;;;;4.67;3.00;;;;;19.10;66.22;100578.31;5054441;28;45184;-68
2021/07/12 05:40:04;;;;;;;;;4.00;4.00;;;;;19.10;66.50;100579.13;5055183;28;47244;-68
2021/07/12 05:42:29;;;;;;;;;3.67;3.67;;;;;19.12;66.19;100581.59;5052280;28;45549;-68
2021/07/12 05:44:54;;;;;;;;;6.33;4.00;;;;;19.16;66.46;100584.75;5052557;28;45363;-68
2021/07/12 05:47:20;;;;;;;;;4.67;4.67;;;;;19.16;66.32;100585.56;5053587;28;45379;-69
2021/07/12 05:49:45;;;;;;;;;5.33;4.33;;;;;19.16;66.37;100585.56;5052819;28;46099;-69
2021/07/12 05:52:10;;;;;;;;;5.33;5.00;;;;;19.12;66.60;100573.63;5056139;28;45344;-68
2021/07/12 05:54:36;;;;;;;;;3.67;3.67;;;;;19.17;66.71;100586.41;5036292;28;45486;-68
2021/07/12 05:57:01;;;;;;;;;4.33;4.33;;;;;19.16;66.75;100582.09;5053871;28;45346;-69
2021/07/12 05:59:27;;;;;;;;;5.00;3.00;;;;;19.16;66.52;100577.59;5052704;28;45445;-68
2021/07/12 06:01:52;;;;;;;;;5.33;5.33;;;;;19.16;66.88;100574.91;5048459;28;45540;-68
2021/07/12 06:04:18;;;;;;;;;4.33;4.33;;;;;19.17;66.79;100573.09;5055174;28;45867;-68
2021/07/12 06:06:43;;;;;;;;;4.00;4.00;;;;;19.16;66.67;100566.94;5053186;28;45664;-68
2021/07/12 06:09:09;;;;;;;;;5.33;3.33;;;;;19.16;66.58;100564.28;5054081;28;46138;-68
2021/07/12 06:11:34;;;;;;;;;5.67;5.67;;;;;19.16;66.88;100566.94;5052649;28;45494;-68
2021/07/12 06:14:00;;;;;;;;;4.00;4.00;;;;;19.17;67.13;100562.47;5053284;28;45375;-67
2021/07/12 06:16:25;;;;;;;;;5.67;4.67;;;;;19.17;67.22;100563.28;5054285;28;46095;-68
2021/07/12 06:18:51;;;;;;;;;7.00;6.33;;;;;19.16;66.97;100564.28;5055321;28;47000;-67
2021/07/12 06:21:16;;;;;;;;;5.00;5.00;;;;;19.15;67.01;100565.28;5054272;28;45366;-68
2021/07/12 06:23:42;;;;;;;;;4.00;3.00;;;;;19.15;67.13;100562.63;5054323;28;45260;-67
2021/07/12 06:26:08;;;;;;;;;4.33;3.00;;;;;19.13;67.22;100568.13;5054520;28;45471;-68
2021/07/12 06:28:33;;;;;;;;;8.00;5.00;;;;;19.13;67.32;100567.28;5055543;28;45440;-68
2021/07/12 06:30:59;;;;;;;;;5.00;4.00;;;;;19.12;67.24;100569.13;5055362;28;45361;-68
2021/07/12 06:33:27;;;;;;;;;4.00;4.00;;;;;19.11;67.50;100569.28;5053480;28;45348;-69
2021/07/12 06:35:53;;;;;;;;;5.33;5.33;;;;;19.08;67.74;100570.50;5055387;28;45429;-68
2021/07/12 06:38:19;;;;;;;;;3.00;3.00;;;;;19.06;67.79;100566.34;5055779;28;46924;-69
2021/07/12 06:40:44;;;;;;;;;7.00;3.67;;;;;19.05;67.88;100548.72;5052544;28;45529;-69
2021/07/12 06:43:09;;;;;;;;;5.33;4.00;;;;;19.03;67.98;100548.88;5055834;28;45310;-67
2021/07/12 06:45:35;;;;;;;;;5.00;5.00;;;;;19.00;67.79;100537.75;5051466;28;45632;-68
2021/07/12 06:48:00;;;;;;;;;6.00;5.00;;;;;18.94;68.47;100515.31;5052416;28;47024;-67
2021/07/12 06:50:26;;;;;;;;;5.67;5.33;;;;;18.96;68.58;100524.78;5052953;28;45305;-67
2021/07/12 06:52:51;;;;;;;;;9.00;6.00;;;;;18.87;68.73;100523.13;5053363;28;45256;-68
2021/07/12 06:55:18;;;;;;;;;8.00;8.00;;;;;18.87;68.94;100524.97;5054478;28;45458;-68
2021/07/12 06:57:43;;;;;;;;;9.00;8.00;;;;;18.83;68.96;100523.66;5053030;28;46404;-69
2021/07/12 07:00:09;;;;;;;;;13.33;8.67;;;;;18.80;69.31;100524.84;5052281;28;45501;-68
2021/07/12 07:02:35;;;;;;;;;18.33;15.67;;;;;18.77;69.88;100523.34;5053105;28;47712;-68
2021/07/12 07:05:02;;;;;;;;;7.33;7.00;;;;;18.78;69.63;100532.16;5052478;28;45728;-68
2021/07/12 07:07:27;;;;;;;;;9.00;7.67;;;;;18.77;69.50;100534.00;5052966;28;46404;-67
2021/07/12 07:09:53;;;;;;;;;8.33;6.00;;;;;18.80;70.01;100544.28;5052547;28;45405;-67
2021/07/12 07:12:18;;;;;;;;;9.33;8.00;;;;;18.84;69.67;100541.25;5053238;28;45438;-68
2021/07/12 07:14:44;;;;;;;;;7.33;6.67;;;;;18.86;69.66;100537.44;5051129;28;45285;-69
2021/07/12 07:17:09;;;;;;;;;9.33;8.00;;;;;18.89;69.20;100544.25;5034250;28;46168;-69
2021/07/12 07:19:34;;;;;;;;;8.00;7.00;;;;;18.90;69.47;100540.63;5052393;28;45344;-68
2021/07/12 07:22:00;;;;;;;;;11.00;6.00;;;;;18.92;69.28;100536.78;5053706;28;45355;-69
2021/07/12 07:24:25;;;;;;;;;8.00;6.33;;;;;18.91;69.34;100540.44;5051300;28;45877;-68
2021/07/12 07:26:50;;;;;;;;;10.33;8.00;;;;;18.92;69.82;100549.25;5050992;28;45445;-68
2021/07/12 07:29:16;;;;;;;;;9.00;7.33;;;;;18.92;69.78;100566.06;5052618;28;45336;-68
2021/07/12 07:31:43;;;;;;;;;10.33;9.33;;;;;18.93;70.15;100572.22;5037751;28;45467;-68
2021/07/12 07:34:08;;;;;;;;;19.67;16.33;;;;;18.95;69.94;100570.19;5055302;28;45232;-67
2021/07/12 07:36:34;;;;;;;;;9.33;7.00;;;;;18.95;69.79;100570.19;5052726;28;45359;-68
2021/07/12 07:38:59;;;;;;;;;7.33;7.00;;;;;18.96;69.63;100554.06;5051005;28;45411;-68
2021/07/12 07:41:25;;;;;;;;;6.00;6.00;;;;;18.94;69.98;100542.78;5053092;28;45358;-67
2021/07/12 07:43:51;;;;;;;;;8.67;6.33;;;;;18.90;69.69;100543.28;5053890;28;45470;-67
2021/07/12 07:46:16;;;;;;;;;6.00;5.67;;;;;18.85;69.58;100559.75;5054535;28;45628;-68
2021/07/12 07:48:41;;;;;;;;;6.00;6.00;;;;;18.82;70.40;100568.06;5054144;28;45463;-68
2021/07/12 07:51:07;;;;;;;;;6.00;6.00;;;;;18.82;70.32;100576.03;5053707;28;45391;-69
2021/07/12 07:53:32;;;;;;;;;6.67;5.33;;;;;18.80;70.52;100572.75;5053087;28;45575;-68
2021/07/12 07:55:58;;;;;;;;;8.00;7.00;;;;;18.81;70.67;100585.00;5052486;28;45857;-69
2021/07/12 07:58:23;;;;;;;;;10.00;8.00;;;;;18.82;70.89;100570.72;5053639;28;45583;-69
2021/07/12 08:00:48;;;;;;;;;13.33;7.67;;;;;18.82;70.97;100565.41;5052529;28;45531;-68
2021/07/12 08:03:14;;;;;;;;;8.67;8.00;;;;;18.84;71.22;100578.53;5051029;28;45482;-68
2021/07/12 08:05:39;;;;;;;;;8.00;6.00;;;;;18.83;71.65;100580.38;5050980;28;47128;-68
2021/07/12 08:08:05;;;;;;;;;9.33;8.00;;;;;18.83;70.81;100572.38;5052635;28;45232;-68
2021/07/12 08:10:30;;;;;;;;;9.00;8.33;;;;;18.81;71.11;100563.72;5054046;28;45516;-68
2021/07/12 08:12:57;;;;;;;;;11.33;7.00;;;;;18.82;71.31;100568.06;5056718;28;45454;-71
2021/07/12 08:15:22;;;;;;;;;12.33;8.00;;;;;18.84;71.84;100554.56;5053673;28;47209;-68
2021/07/12 08:17:49;;;;;;;;;7.00;7.00;;;;;18.87;70.99;100548.91;5035670;28;45553;-67
2021/07/12 08:20:16;;;;;;;;;8.00;8.00;;;;;18.92;71.58;100555.41;5052667;28;45505;-68
2021/07/12 08:22:42;;;;;;;;;10.67;7.33;;;;;19.01;71.60;100560.72;5018825;28;45405;-67
2021/07/12 08:25:09;;;;;;;;;8.33;7.67;;;;;19.11;71.40;100550.66;5054050;28;47129;-67
2021/07/12 08:27:35;;;;;;;;;10.00;8.67;;;;;19.23;71.38;100559.09;5050425;28;45596;-67
2021/07/12 08:30:02;;;;;;;;;8.33;8.00;;;;;19.34;71.16;100557.88;5052372;28;45533;-68
2021/07/12 08:32:27;;;;;;;;;9.00;8.33;;;;;19.41;71.13;100558.84;5045886;28;45415;-68
2021/07/12 08:34:53;;;;;;;;;15.33;15.33;;;;;19.46;70.93;100567.94;5052912;28;46184;-68
2021/07/12 08:37:18;;;;;;;;;23.33;20.33;;;;;19.57;70.61;100573.88;5057024;28;45362;-68
2021/07/12 08:39:44;;;;;;;;;7.67;7.67;;;;;19.66;69.73;100578.13;5055123;28;45452;-68
2021/07/12 08:42:12;;;;;;;;;17.00;13.00;;;;;19.72;69.62;100590.75;5054380;28;45469;-68
2021/07/12 08:44:39;;;;;;;;;8.33;8.33;;;;;19.78;69.65;100575.88;5055016;28;45504;-68
2021/07/12 08:47:06;;;;;;;;;8.67;8.67;;;;;19.81;69.32;100580.88;5055475;28;45828;-67
2021/07/12 08:49:33;;;;;;;;;9.00;8.67;;;;;19.84;69.51;100587.72;5037620;28;45207;-69
2021/07/12 08:52:03;;;;;;;;;10.33;9.33;;;;;19.85;69.39;100592.88;5057345;28;45533;-68
2021/07/12 08:54:28;;;;;;;;;10.33;8.00;;;;;19.82;69.41;100579.88;5055181;28;47029;-69
2021/07/12 08:56:54;;;;;;;;;13.00;8.00;;;;;19.82;69.55;100571.06;5055217;28;45410;-68
2021/07/12 08:59:29;;;;;;;;;7.00;7.00;;;;;19.86;69.63;100577.69;5052803;28;45651;-67
2021/07/12 09:02:00;;;;;;;;;14.00;10.00;;;;;19.87;69.02;100582.84;5056353;28;45695;-69
2021/07/12 09:04:27;;;;;;;;;14.00;12.00;;;;;19.89;69.67;100585.34;5036516;28;47371;-68
2021/07/12 09:07:03;;;;;;;;;13.00;10.33;;;;;19.91;69.70;100570.81;5057160;28;45368;-67
2021/07/12 09:09:28;;;;;;;;;13.33;10.67;;;;;19.93;69.64;100590.13;5054857;28;45535;-67
2021/07/12 09:11:54;;;;;;;;;14.67;12.00;;;;;19.92;70.03;100585.78;5055062;28;45594;-68
2021/07/12 09:14:19;;;;;;;;;11.00;9.00;;;;;19.91;69.39;100578.78;5055345;28;46072;-67
2021/07/12 09:16:52;;;;;;;;;13.67;11.00;;;;;19.91;69.32;100583.31;5038094;28;45395;-68
2021/07/12 09:19:33;;;;;;;;;12.67;12.67;;;;;19.90;69.91;100594.97;5056602;28;45522;-70
2021/07/12 09:22:03;;;;;;;;;18.33;15.33;;;;;19.88;69.74;100591.69;5057038;28;45451;-69
2021/07/12 09:24:29;;;;;;;;;13.00;11.00;;;;;19.86;70.03;100607.84;5055635;28;46066;-69
2021/07/12 09:27:03;;;;;;;;;12.67;8.67;;;;;19.85;70.01;100603.53;5056103;28;45514;-69
2021/07/12 09:29:31;;;;;;;;;12.67;12.00;;;;;19.85;70.53;100606.19;5055291;28;45396;-68
2021/07/12 09:31:58;;;;;;;;;16.00;13.00;;;;;19.83;70.73;100608.19;5055401;28;45549;-68
2021/07/12 09:34:24;;;;;;;;;9.33;8.00;;;;;19.82;71.28;100608.38;5056444;28;46117;-70
2021/07/12 09:36:52;;;;;;;;;12.33;9.67;;;;;19.82;70.82;100624.38;5056716;28;45486;-68
2021/07/12 09:39:41;;;;;;;;;13.33;11.00;;;;;19.78;71.21;100619.38;5054799;28;45342;-68
2021/07/12 09:42:12;;;;;;;;;11.67;8.33;;;;;19.77;71.48;100619.53;5045812;28;45491;-68
2021/07/12 09:44:44;;;;;;;;;11.67;8.67;;;;;19.76;71.72;100623.22;5053138;28;47003;-67
2021/07/12 09:47:22;;;;;;;;;10.00;10.00;;;;;19.76;71.24;100629.38;5054694;28;45321;-67
2021/07/12 09:49:58;;;;;;;;;11.00;11.00;;;;;19.74;72.17;100627.88;5047933;28;45417;-69
2021/07/12 09:52:23;;;;;;;;;9.00;9.00;;;;;19.71;71.85;100630.91;5054657;28;45545;-68
2021/07/12 09:54:49;;;;;;;;;10.33;9.67;;;;;19.68;72.64;100625.91;5055678;28;46894;-69
2021/07/12 09:57:15;;;;;;;;;10.33;10.00;;;;;19.60;72.26;100626.78;5053062;28;45438;-69
2021/07/12 09:59:59;;;;;;;;;10.00;10.00;;;;;19.55;72.67;100629.16;5053465;28;45397;-68
2021/07/12 10:02:26;;;;;;;;;9.33;9.00;;;;;19.49;73.08;100630.69;5054583;28;45416;-69
2021/07/12 10:05:00;;;;;;;;;13.33;9.33;;;;;19.45;73.05;100624.06;5053226;28;45678;-68
2021/07/12 10:07:27;;;;;;;;;8.67;8.67;;;;;19.44;73.53;100627.72;5054583;28;45237;-68
2021/07/12 10:09:53;;;;;;;;;9.67;9.33;;;;;19.43;73.61;100631.38;5057322;28;45528;-70
2021/07/12 10:12:18;;;;;;;;;12.00;12.00;;;;;19.42;73.39;100635.91;5056519;28;45554;-68
2021/07/12 10:14:44;;;;;;;;;13.33;12.00;;;;;19.46;73.49;100636.38;5056148;28;47091;-70
2021/07/12 10:17:11;;;;;;;;;16.67;14.00;;;;;19.54;73.86;100633.66;5055376;28;45346;-68
2021/07/12 10:19:37;;;;;;;;;14.00;13.33;;;;;19.68;73.80;100631.25;5054239;28;45576;-69
2021/07/12 10:22:03;;;;;;;;;11.33;10.00;;;;;19.82;73.72;100630.50;5054926;28;45649;-68
2021/07/12 10:24:37;;;;;;;;;11.33;10.00;;;;;20.04;73.37;100620.03;5052328;28;47721;-69
2021/07/12 10:27:03;;;;;;;;;12.67;10.00;;;;;20.28;72.30;100625.16;5053795;28;45560;-69
2021/07/12 10:29:34;;;;;;;;;10.67;9.33;;;;;20.51;71.30;100618.97;5036590;28;45463;-68
2021/07/12 10:32:09;;;;;;;;;9.33;8.33;;;;;20.73;70.71;100611.06;5054026;28;45426;-68
2021/07/12 10:34:42;;;;;;;;;12.67;12.67;;;;;20.96;70.50;100613.66;5054144;28;47462;-69
2021/07/12 10:37:50;;;;;;;;;10.33;8.33;;;;;21.17;69.80;100615.56;5034132;28;45433;-69
2021/07/12 10:40:18;;;;;;;;;10.67;8.33;;;;;21.39;69.34;100611.13;4973805;28;45551;-67
2021/07/12 10:42:43;;;;;;;;;9.33;9.00;;;;;21.65;68.73;100620.44;4971572;28;45488;-69
2021/07/12 10:45:24;;;;;;;;;15.00;11.00;;;;;21.89;69.20;100616.59;4972412;28;45442;-67
2021/07/12 10:48:04;;;;;;;;;11.00;11.00;;;;;22.07;68.05;100609.97;4972493;28;45382;-70
2021/07/12 10:50:38;;;;;;;;;11.00;10.00;;;;;22.18;67.48;100606.75;4972058;28;45857;-68
2021/07/12 10:53:16;;;;;;;;;14.00;13.00;;;;;22.32;67.26;100604.19;4971640;28;45660;-68
2021/07/12 10:55:46;;;;;;;;;14.00;13.00;;;;;22.41;66.63;100597.69;4971751;28;45435;-69
2021/07/12 10:58:32;;;;;;;;;13.00;11.33;;;;;22.57;66.42;100589.38;4969027;28;45513;-68
2021/07/12 11:01:00;;;;;;;;;12.00;11.67;;;;;22.76;65.35;100589.69;4973935;28;45486;-69
2021/07/12 11:03:39;;;;;;;;;13.00;11.67;;;;;22.86;65.89;100590.16;4972046;28;45439;-70
2021/07/12 11:06:20;;;;;;;;;11.00;10.00;;;;;22.95;65.08;100577.41;4971412;28;47161;-68
2021/07/12 11:08:49;;;;;;;;;13.00;10.00;;;;;23.05;65.40;100577.03;4971625;28;45343;-68
2021/07/12 11:11:20;;;;;;;;;8.67;8.00;;;;;23.13;64.67;100571.53;4955541;28;45414;-68
2021/07/12 11:14:00;;;;;;;;;11.00;10.00;;;;;23.19;62.93;100573.41;4979423;28;45412;-69
2021/07/12 11:16:47;;;;;;;;;14.67;10.33;;;;;23.21;62.87;100566.00;5054284;28;46087;-70
2021/07/12 11:19:24;;;;;;;;;14.00;8.33;;;;;23.13;62.78;100558.13;5052753;28;45406;-69
2021/07/12 11:21:51;;;;;;;;;10.00;9.00;;;;;23.06;63.38;100563.44;5054886;28;45343;-69
2021/07/12 11:24:24;;;;;;;;;10.33;8.33;;;;;23.01;63.20;100559.72;5054942;28;45501;-69
2021/07/12 11:26:54;;;;;;;;;8.33;7.00;;;;;22.86;63.99;100552.66;5054082;28;45509;-69
2021/07/12 11:29:29;;;;;;;;;10.00;10.00;;;;;22.77;64.79;100564.56;5053479;28;45431;-70